sensor_id;sensor_type;location;lat;lon;timestamp;pressure;altitude;pressure_sealevel;temperature;humidity
63808;BME280;49961;43.970;22.868;2023-02-13T00:00:58;103525.38;;;3.45;100.00
63808;BME280;49961;43.970;22.868;2023-02-13T00:01:58;103527.78;;;3.38;100.00
63808;BME280;49961;43.970;22.868;2023-02-13T00:02:59;103531.75;;;3.32;100.00
63808;BME280;49961;43.970;22.868;2023-02-13T00:03:59;103523.22;;;3.33;100.00
63808;BME280;49961;43.970;22.868;2023-02-13T00:05:00;103532.06;;;3.30;100.00
63808;BME280;49961;43.970;22.868;2023-02-13T00:06:00;103509.91;;;3.18;100.00
63808;BME280;49961;43.970;22.868;2023-02-13T00:07:01;103535.44;;;3.27;100.00
63808;BME280;49961;43.970;22.868;2023-02-13T00:08:01;103529.81;;;3.32;100.00
63808;BME280;49961;43.970;22.868;2023-02-13T00:09:02;103492.09;;;3.07;100.00
63808;BME280;49961;43.970;22.868;2023-02-13T00:10:02;103533.16;;;3.29;100.00
63808;BME280;49961;43.970;22.868;2023-02-13T00:11:03;103526.03;;;3.20;100.00
63808;BME280;49961;43.970;22.868;2023-02-13T00:12:05;103536.00;;;3.16;100.00
63808;BME280;49961;43.970;22.868;2023-02-13T00:13:06;103542.59;;;3.15;100.00
63808;BME280;49961;43.970;22.868;2023-02-13T00:14:07;103539.25;;;3.18;100.00
63808;BME280;49961;43.970;22.868;2023-02-13T00:15:08;103530.22;;;3.17;100.00
63808;BME280;49961;43.970;22.868;2023-02-13T00:16:08;103550.56;;;3.25;100.00
63808;BME280;49961;43.970;22.868;2023-02-13T00:17:09;103548.44;;;3.22;100.00
63808;BME280;49961;43.970;22.868;2023-02-13T00:18:09;103527.59;;;3.12;100.00
63808;BME280;49961;43.970;22.868;2023-02-13T00:19:10;103545.22;;;3.20;100.00
63808;BME280;49961;43.970;22.868;2023-02-13T00:20:11;103548.56;;;3.17;100.00
63808;BME280;49961;43.970;22.868;2023-02-13T00:21:12;103422.13;;;2.35;100.00
63808;BME280;49961;43.970;22.868;2023-02-13T00:22:13;103550.50;;;3.16;100.00
63808;BME280;49961;43.970;22.868;2023-02-13T00:23:15;103548.56;;;3.17;100.00
63808;BME280;49961;43.970;22.868;2023-02-13T00:24:16;103551.81;;;3.19;100.00
63808;BME280;49961;43.970;22.868;2023-02-13T00:25:16;103551.31;;;3.17;100.00
63808;BME280;49961;43.970;22.868;2023-02-13T00:26:17;103551.94;;;3.14;100.00
63808;BME280;49961;43.970;22.868;2023-02-13T00:27:18;103548.38;;;3.13;100.00
63808;BME280;49961;43.970;22.868;2023-02-13T00:28:18;103550.63;;;3.11;100.00
63808;BME280;49961;43.970;22.868;2023-02-13T00:29:18;103551.25;;;3.08;100.00
63808;BME280;49961;43.970;22.868;2023-02-13T00:30:20;103555.00;;;3.12;100.00
63808;BME280;49961;43.970;22.868;2023-02-13T00:31:21;103558.56;;;3.13;100.00
63808;BME280;49961;43.970;22.868;2023-02-13T00:32:22;103550.75;;;3.06;100.00
63808;BME280;49961;43.970;22.868;2023-02-13T00:33:22;103556.72;;;3.08;100.00
63808;BME280;49961;43.970;22.868;2023-02-13T00:34:22;103564.16;;;3.08;100.00
63808;BME280;49961;43.970;22.868;2023-02-13T00:35:23;103562.84;;;3.05;100.00
63808;BME280;49961;43.970;22.868;2023-02-13T00:36:24;103562.50;;;3.07;100.00
63808;BME280;49961;43.970;22.868;2023-02-13T00:37:24;103544.72;;;2.96;100.00
63808;BME280;49961;43.970;22.868;2023-02-13T00:38:25;103561.09;;;3.09;100.00
63808;BME280;49961;43.970;22.868;2023-02-13T00:39:25;103560.78;;;3.11;100.00
63808;BME280;49961;43.970;22.868;2023-02-13T00:40:26;103559.16;;;3.10;100.00
63808;BME280;49961;43.970;22.868;2023-02-13T00:41:26;103562.84;;;3.05;100.00
63808;BME280;49961;43.970;22.868;2023-02-13T00:42:27;103552.81;;;3.01;100.00
63808;BME280;49961;43.970;22.868;2023-02-13T00:43:27;103559.47;;;3.08;100.00
63808;BME280;49961;43.970;22.868;2023-02-13T00:44:28;103558.03;;;3.11;100.00
63808;BME280;49961;43.970;22.868;2023-02-13T00:45:28;103359.47;;;1.90;100.00
63808;BME280;49961;43.970;22.868;2023-02-13T00:46:29;103559.03;;;3.15;100.00
63808;BME280;49961;43.970;22.868;2023-02-13T00:47:29;103559.03;;;3.15;100.00
63808;BME280;49961;43.970;22.868;2023-02-13T00:48:31;103538.19;;;3.05;100.00
63808;BME280;49961;43.970;22.868;2023-02-13T00:49:32;103571.00;;;3.19;100.00
63808;BME280;49961;43.970;22.868;2023-02-13T00:50:32;103562.47;;;3.20;100.00
63808;BME280;49961;43.970;22.868;2023-02-13T00:51:33;103562.47;;;3.20;100.00
63808;BME280;49961;43.970;22.868;2023-02-13T00:52:33;103560.84;;;3.19;100.00
63808;BME280;49961;43.970;22.868;2023-02-13T00:53:35;103564.41;;;3.20;100.00
63808;BME280;49961;43.970;22.868;2023-02-13T00:54:36;103557.00;;;3.20;100.00
63808;BME280;49961;43.970;22.868;2023-02-13T00:55:36;103552.94;;;3.18;100.00
63808;BME280;49961;43.970;22.868;2023-02-13T00:56:36;103555.88;;;3.21;100.00
63808;BME280;49961;43.970;22.868;2023-02-13T00:57:37;103553.13;;;3.21;100.00
63808;BME280;49961;43.970;22.868;2023-02-13T00:58:37;103542.97;;;3.22;100.00
63808;BME280;49961;43.970;22.868;2023-02-13T00:59:38;103554.75;;;3.22;100.00
63808;BME280;49961;43.970;22.868;2023-02-13T01:00:38;103557.78;;;3.21;100.00
63808;BME280;49961;43.970;22.868;2023-02-13T01:01:39;103555.88;;;3.21;100.00
63808;BME280;49961;43.970;22.868;2023-02-13T01:02:39;103548.38;;;3.13;100.00
63808;BME280;49961;43.970;22.868;2023-02-13T01:03:40;103554.56;;;3.19;100.00
63808;BME280;49961;43.970;22.868;2023-02-13T01:04:40;103552.94;;;3.18;100.00
63808;BME280;49961;43.970;22.868;2023-02-13T01:05:42;103515.56;;;3.00;100.00
63808;BME280;49961;43.970;22.868;2023-02-13T01:06:42;103516.06;;;3.02;100.00
63808;BME280;49961;43.970;22.868;2023-02-13T01:07:43;103539.56;;;3.16;100.00
63808;BME280;49961;43.970;22.868;2023-02-13T01:08:43;103552.44;;;3.16;100.00
63808;BME280;49961;43.970;22.868;2023-02-13T01:09:44;103536.00;;;3.16;100.00
63808;BME280;49961;43.970;22.868;2023-02-13T01:10:46;103537.94;;;3.15;100.00
63808;BME280;49961;43.970;22.868;2023-02-13T01:11:47;103546.47;;;3.14;100.00
63808;BME280;49961;43.970;22.868;2023-02-13T01:12:47;103539.16;;;3.09;100.00
63808;BME280;49961;43.970;22.868;2023-02-13T01:13:48;103539.50;;;3.08;100.00
63808;BME280;49961;43.970;22.868;2023-02-13T01:14:48;103479.34;;;2.81;100.00
63808;BME280;49961;43.970;22.868;2023-02-13T01:15:49;103521.88;;;3.00;100.00
63808;BME280;49961;43.970;22.868;2023-02-13T01:16:50;103541.28;;;3.12;100.00
63808;BME280;49961;43.970;22.868;2023-02-13T01:17:54;103546.59;;;3.09;100.00
63808;BME280;49961;43.970;22.868;2023-02-13T01:18:56;103543.84;;;3.09;100.00
63808;BME280;49961;43.970;22.868;2023-02-13T01:19:56;103549.50;;;3.12;100.00
63808;BME280;49961;43.970;22.868;2023-02-13T01:21:00;103541.00;;;3.14;100.00
63808;BME280;49961;43.970;22.868;2023-02-13T01:22:01;103541.78;;;3.14;100.00
63808;BME280;49961;43.970;22.868;2023-02-13T01:23:02;103426.47;;;2.36;100.00
63808;BME280;49961;43.970;22.868;2023-02-13T01:24:04;103545.94;;;3.12;100.00
63808;BME280;49961;43.970;22.868;2023-02-13T01:25:05;103541.28;;;3.12;100.00
63808;BME280;49961;43.970;22.868;2023-02-13T01:26:07;103539.69;;;3.11;100.00
63808;BME280;49961;43.970;22.868;2023-02-13T01:27:08;103552.25;;;3.12;100.00
63808;BME280;49961;43.970;22.868;2023-02-13T01:28:08;103542.91;;;3.13;100.00
63808;BME280;49961;43.970;22.868;2023-02-13T01:29:11;103459.84;;;2.60;100.00
63808;BME280;49961;43.970;22.868;2023-02-13T01:30:14;103540.59;;;3.07;100.00
63808;BME280;49961;43.970;22.868;2023-02-13T01:31:14;103538.38;;;3.09;100.00
63808;BME280;49961;43.970;22.868;2023-02-13T01:32:15;103544.47;;;3.06;100.00
63808;BME280;49961;43.970;22.868;2023-02-13T01:33:15;103536.06;;;3.02;100.00
63808;BME280;49961;43.970;22.868;2023-02-13T01:34:15;103534.44;;;3.01;100.00
63808;BME280;49961;43.970;22.868;2023-02-13T01:35:16;103534.44;;;3.01;100.00
63808;BME280;49961;43.970;22.868;2023-02-13T01:36:16;103538.91;;;2.97;100.00
63808;BME280;49961;43.970;22.868;2023-02-13T01:37:17;103449.88;;;2.42;100.00
63808;BME280;49961;43.970;22.868;2023-02-13T01:38:18;103540.78;;;2.88;100.00
63808;BME280;49961;43.970;22.868;2023-02-13T01:39:19;103542.22;;;2.86;100.00
63808;BME280;49961;43.970;22.868;2023-02-13T01:40:19;103539.59;;;2.81;100.00
63808;BME280;49961;43.970;22.868;2023-02-13T01:41:20;103548.13;;;2.79;100.00
63808;BME280;49961;43.970;22.868;2023-02-13T01:42:24;103532.34;;;2.63;100.00
63808;BME280;49961;43.970;22.868;2023-02-13T01:43:46;103536.22;;;2.62;100.00
63808;BME280;49961;43.970;22.868;2023-02-13T01:45:51;103532.34;;;2.63;100.00
63808;BME280;49961;43.970;22.868;2023-02-13T01:46:53;103541.19;;;2.60;100.00
63808;BME280;49961;43.970;22.868;2023-02-13T01:48:01;103471.16;;;2.10;100.00
63808;BME280;49961;43.970;22.868;2023-02-13T01:49:18;103528.13;;;2.57;100.00
63808;BME280;49961;43.970;22.868;2023-02-13T01:50:36;103552.25;;;2.55;100.00
63808;BME280;49961;43.970;22.868;2023-02-13T01:51:39;103535.31;;;2.53;100.00
63808;BME280;49961;43.970;22.868;2023-02-13T01:52:43;103544.13;;;2.50;100.00
63808;BME280;49961;43.970;22.868;2023-02-13T01:53:45;103540.91;;;2.48;100.00
63808;BME280;49961;43.970;22.868;2023-02-13T01:54:47;103529.59;;;2.41;100.00
63808;BME280;49961;43.970;22.868;2023-02-13T01:55:54;103537.69;;;2.46;100.00
63808;BME280;49961;43.970;22.868;2023-02-13T01:57:03;103539.59;;;2.45;100.00
63808;BME280;49961;43.970;22.868;2023-02-13T01:58:08;103533.00;;;2.46;100.00
63808;BME280;49961;43.970;22.868;2023-02-13T01:59:15;103536.38;;;2.43;100.00
63808;BME280;49961;43.970;22.868;2023-02-13T02:00:16;103523.50;;;2.30;100.00
63808;BME280;49961;43.970;22.868;2023-02-13T02:01:18;103539.22;;;2.38;100.00
63808;BME280;49961;43.970;22.868;2023-02-13T02:02:19;103428.56;;;1.68;100.00
63808;BME280;49961;43.970;22.868;2023-02-13T02:03:25;103537.06;;;2.35;100.00
63808;BME280;49961;43.970;22.868;2023-02-13T02:04:30;103552.09;;;2.38;100.00
63808;BME280;49961;43.970;22.868;2023-02-13T02:05:33;103543.28;;;2.41;100.00
63808;BME280;49961;43.970;22.868;2023-02-13T02:06:42;103544.06;;;2.41;100.00
63808;BME280;49961;43.970;22.868;2023-02-13T02:07:44;103537.69;;;2.32;100.00
63808;BME280;49961;43.970;22.868;2023-02-13T02:08:45;103564.03;;;2.42;100.00
63808;BME280;49961;43.970;22.868;2023-02-13T02:09:48;103544.88;;;2.42;100.00
63808;BME280;49961;43.970;22.868;2023-02-13T02:10:50;103539.41;;;2.42;100.00
63808;BME280;49961;43.970;22.868;2023-02-13T02:11:53;103544.88;;;2.42;100.00
63808;BME280;49961;43.970;22.868;2023-02-13T02:13:04;103551.97;;;2.43;100.00
63808;BME280;49961;43.970;22.868;2023-02-13T02:14:05;103539.91;;;2.44;100.00
63808;BME280;49961;43.970;22.868;2023-02-13T02:15:07;103540.84;;;2.39;100.00
63808;BME280;49961;43.970;22.868;2023-02-13T02:16:07;103546.59;;;2.38;100.00
63808;BME280;49961;43.970;22.868;2023-02-13T02:17:08;103494.47;;;2.07;100.00
63808;BME280;49961;43.970;22.868;2023-02-13T02:18:14;103537.28;;;2.39;100.00
63808;BME280;49961;43.970;22.868;2023-02-13T02:24:42;103543.47;;;2.31;100.00
63808;BME280;49961;43.970;22.868;2023-02-13T02:26:16;103543.25;;;2.27;100.00
63808;BME280;49961;43.970;22.868;2023-02-13T02:37:56;103550.56;;;1.78;100.00
63808;BME280;49961;43.970;22.868;2023-02-13T02:39:26;103552.50;;;1.77;100.00
63808;BME280;49961;43.970;22.868;2023-02-13T02:40:45;103556.56;;;1.80;100.00
63808;BME280;49961;43.970;22.868;2023-02-13T02:43:33;103570.53;;;1.78;100.00
63808;BME280;49961;43.970;22.868;2023-02-13T02:44:44;103458.75;;;1.04;100.00
63808;BME280;49961;43.970;22.868;2023-02-13T02:46:15;103568.69;;;1.74;100.00
63808;BME280;49961;43.970;22.868;2023-02-13T02:47:29;103566.88;;;1.83;100.00
63808;BME280;49961;43.970;22.868;2023-02-13T02:49:15;103561.59;;;1.86;100.00
63808;BME280;49961;43.970;22.868;2023-02-13T02:51:00;103555.84;;;1.88;100.00
63808;BME280;49961;43.970;22.868;2023-02-13T02:52:06;103562.34;;;1.92;100.00
63808;BME280;49961;43.970;22.868;2023-02-13T02:54:52;103559.69;;;2.00;100.00
63808;BME280;49961;43.970;22.868;2023-02-13T02:56:13;103558.81;;;2.05;100.00
63808;BME280;49961;43.970;22.868;2023-02-13T02:57:24;103556.56;;;2.07;100.00
63808;BME280;49961;43.970;22.868;2023-02-13T02:59:00;103543.50;;;1.90;100.00
63808;BME280;49961;43.970;22.868;2023-02-13T03:00:24;103564.47;;;2.08;100.00
63808;BME280;49961;43.970;22.868;2023-02-13T03:01:44;103536.00;;;1.96;100.00
63808;BME280;49961;43.970;22.868;2023-02-13T03:03:18;103561.13;;;2.11;100.00
63808;BME280;49961;43.970;22.868;2023-02-13T03:04:40;103564.03;;;2.15;100.00
63808;BME280;49961;43.970;22.868;2023-02-13T03:06:01;103533.84;;;2.06;100.00
63808;BME280;49961;43.970;22.868;2023-02-13T03:07:15;103561.22;;;2.20;100.00
63808;BME280;49961;43.970;22.868;2023-02-13T03:08:16;103560.13;;;2.21;100.00
63808;BME280;49961;43.970;22.868;2023-02-13T03:09:44;103566.09;;;2.23;100.00
63808;BME280;49961;43.970;22.868;2023-02-13T03:11:05;103566.91;;;2.23;100.00
63808;BME280;49961;43.970;22.868;2023-02-13T03:12:29;103558.88;;;2.27;100.00
63808;BME280;49961;43.970;22.868;2023-02-13T03:13:52;103511.69;;;1.94;100.00
63808;BME280;49961;43.970;22.868;2023-02-13T03:14:53;103568.22;;;2.26;100.00
63808;BME280;49961;43.970;22.868;2023-02-13T03:15:56;103561.63;;;2.27;100.00
63808;BME280;49961;43.970;22.868;2023-02-13T03:17:17;103564.84;;;2.29;100.00
63808;BME280;49961;43.970;22.868;2023-02-13T03:18:43;103562.53;;;2.22;100.00
63808;BME280;49961;43.970;22.868;2023-02-13T03:20:26;103554.94;;;2.19;100.00
63808;BME280;49961;43.970;22.868;2023-02-13T03:22:05;103495.88;;;1.78;100.00
63808;BME280;49961;43.970;22.868;2023-02-13T03:23:29;103555.34;;;2.13;100.00
63808;BME280;49961;43.970;22.868;2023-02-13T03:29:26;103553.75;;;1.98;100.00
63808;BME280;49961;43.970;22.868;2023-02-13T03:32:41;103556.03;;;1.91;100.00
63808;BME280;49961;43.970;22.868;2023-02-13T03:34:03;103560.44;;;1.92;100.00
63808;BME280;49961;43.970;22.868;2023-02-13T03:35:37;103560.72;;;1.91;100.00
63808;BME280;49961;43.970;22.868;2023-02-13T03:37:01;103438.84;;;1.04;100.00
63808;BME280;49961;43.970;22.868;2023-02-13T03:38:32;103568.81;;;1.82;100.00
63808;BME280;49961;43.970;22.868;2023-02-13T03:39:58;103551.28;;;1.70;100.00
63808;BME280;49961;43.970;22.868;2023-02-13T03:41:03;103531.13;;;1.52;100.00
63808;BME280;49961;43.970;22.868;2023-02-13T03:42:36;103566.56;;;1.71;100.00
63808;BME280;49961;43.970;22.868;2023-02-13T03:45:15;103571.31;;;1.65;100.00
63808;BME280;49961;43.970;22.868;2023-02-13T03:46:40;103558.75;;;1.64;100.00
63808;BME280;49961;43.970;22.868;2023-02-13T03:47:42;103564.34;;;1.73;100.00
63808;BME280;49961;43.970;22.868;2023-02-13T03:48:44;103524.03;;;1.51;100.00
63808;BME280;49961;43.970;22.868;2023-02-13T03:50:05;103562.34;;;1.78;100.00
63808;BME280;49961;43.970;22.868;2023-02-13T03:51:07;103575.81;;;1.75;100.00
63808;BME280;49961;43.970;22.868;2023-02-13T03:53:18;103457.25;;;1.12;100.00
63808;BME280;49961;43.970;22.868;2023-02-13T03:54:26;103326.31;;;0.29;100.00
63808;BME280;49961;43.970;22.868;2023-02-13T03:55:50;103562.63;;;1.77;100.00
63808;BME280;49961;43.970;22.868;2023-02-13T03:57:14;103567.72;;;1.83;100.00
63808;BME280;49961;43.970;22.868;2023-02-13T03:58:44;103568.91;;;1.77;100.00
63808;BME280;49961;43.970;22.868;2023-02-13T04:00:07;103541.13;;;1.57;100.00
63808;BME280;49961;43.970;22.868;2023-02-13T04:01:11;103584.69;;;1.67;100.00
63808;BME280;49961;43.970;22.868;2023-02-13T04:02:18;103593.09;;;1.70;100.00
63808;BME280;49961;43.970;22.868;2023-02-13T04:05:57;103563.84;;;1.71;100.00
63808;BME280;49961;43.970;22.868;2023-02-13T04:07:06;103570.09;;;1.71;100.00
63808;BME280;49961;43.970;22.868;2023-02-13T04:08:08;103565.25;;;1.68;100.00
63808;BME280;49961;43.970;22.868;2023-02-13T04:09:09;103563.34;;;1.69;100.00
63808;BME280;49961;43.970;22.868;2023-02-13T04:10:12;103523.19;;;1.37;100.00
63808;BME280;49961;43.970;22.868;2023-02-13T04:12:26;103561.91;;;1.71;100.00
63808;BME280;49961;43.970;22.868;2023-02-13T04:13:39;103547.63;;;1.61;100.00
63808;BME280;49961;43.970;22.868;2023-02-13T04:15:01;103571.22;;;1.70;100.00
63808;BME280;49961;43.970;22.868;2023-02-13T04:16:34;103575.47;;;1.63;100.00
63808;BME280;49961;43.970;22.868;2023-02-13T04:17:40;103578.53;;;1.61;100.00
63808;BME280;49961;43.970;22.868;2023-02-13T04:18:43;103573.06;;;1.61;100.00
63808;BME280;49961;43.970;22.868;2023-02-13T04:19:44;103569.31;;;1.71;100.00
63808;BME280;49961;43.970;22.868;2023-02-13T04:20:45;103592.22;;;1.75;100.00
63808;BME280;49961;43.970;22.868;2023-02-13T04:21:48;103573.56;;;1.77;100.00
63808;BME280;49961;43.970;22.868;2023-02-13T04:22:49;103568.69;;;1.74;100.00
63808;BME280;49961;43.970;22.868;2023-02-13T04:23:49;103574.88;;;1.79;100.00
63808;BME280;49961;43.970;22.868;2023-02-13T04:24:49;103510.72;;;1.31;100.00
63808;BME280;49961;43.970;22.868;2023-02-13T04:25:53;103464.81;;;1.01;100.00
63808;BME280;49961;43.970;22.868;2023-02-13T04:26:55;103579.53;;;1.79;100.00
63808;BME280;49961;43.970;22.868;2023-02-13T04:27:56;103567.06;;;1.73;100.00
63808;BME280;49961;43.970;22.868;2023-02-13T04:28:57;103580.84;;;1.81;100.00
63808;BME280;49961;43.970;22.868;2023-02-13T04:29:57;103584.22;;;1.78;100.00
63808;BME280;49961;43.970;22.868;2023-02-13T04:30:57;103577.50;;;1.71;100.00
63808;BME280;49961;43.970;22.868;2023-02-13T04:31:58;103575.28;;;1.73;100.00
63808;BME280;49961;43.970;22.868;2023-02-13T04:32:58;103578.75;;;1.78;100.00
63808;BME280;49961;43.970;22.868;2023-02-13T04:33:59;103542.84;;;1.53;100.00
63808;BME280;49961;43.970;22.868;2023-02-13T04:34:59;103455.22;;;1.04;100.00
63808;BME280;49961;43.970;22.868;2023-02-13T04:36:00;103581.09;;;1.85;100.00
63808;BME280;49961;43.970;22.868;2023-02-13T04:37:00;103581.09;;;1.85;100.00
63808;BME280;49961;43.970;22.868;2023-02-13T04:38:01;103585.94;;;1.88;100.00
63808;BME280;49961;43.970;22.868;2023-02-13T04:39:02;103556.31;;;1.63;100.00
63808;BME280;49961;43.970;22.868;2023-02-13T04:40:03;103586.94;;;1.92;100.00
63808;BME280;49961;43.970;22.868;2023-02-13T04:41:03;103578.34;;;1.98;100.00
63808;BME280;49961;43.970;22.868;2023-02-13T04:42:04;103580.78;;;2.00;100.00
63808;BME280;49961;43.970;22.868;2023-02-13T04:43:04;103575.00;;;1.88;100.00
63808;BME280;49961;43.970;22.868;2023-02-13T04:44:05;103583.44;;;2.05;100.00
63808;BME280;49961;43.970;22.868;2023-02-13T04:45:05;103576.41;;;1.99;100.00
63808;BME280;49961;43.970;22.868;2023-02-13T04:46:06;103583.09;;;2.06;100.00
63808;BME280;49961;43.970;22.868;2023-02-13T04:47:06;103590.22;;;2.07;100.00
63808;BME280;49961;43.970;22.868;2023-02-13T04:48:07;103584.41;;;2.09;100.00
63808;BME280;49961;43.970;22.868;2023-02-13T04:49:09;103584.66;;;2.12;100.00
63808;BME280;49961;43.970;22.868;2023-02-13T04:50:10;103589.19;;;2.17;100.00
63808;BME280;49961;43.970;22.868;2023-02-13T04:51:10;103578.34;;;2.12;100.00
63808;BME280;49961;43.970;22.868;2023-02-13T04:52:11;103587.59;;;2.16;100.00
63808;BME280;49961;43.970;22.868;2023-02-13T04:53:11;103586.06;;;2.10;100.00
63808;BME280;49961;43.970;22.868;2023-02-13T04:54:12;103587.88;;;2.14;100.00
63808;BME280;49961;43.970;22.868;2023-02-13T04:55:12;103585.53;;;2.08;100.00
63808;BME280;49961;43.970;22.868;2023-02-13T04:56:13;103591.75;;;2.13;100.00
63808;BME280;49961;43.970;22.868;2023-02-13T04:57:13;103588.91;;;2.18;100.00
63808;BME280;49961;43.970;22.868;2023-02-13T04:58:14;103584.50;;;2.17;100.00
63808;BME280;49961;43.970;22.868;2023-02-13T04:59:14;103597.00;;;2.23;100.00
63808;BME280;49961;43.970;22.868;2023-02-13T05:00:15;103593.44;;;2.23;100.00
63808;BME280;49961;43.970;22.868;2023-02-13T05:01:16;103598.00;;;2.27;100.00
63808;BME280;49961;43.970;22.868;2023-02-13T05:02:16;103600.13;;;2.30;100.00
63808;BME280;49961;43.970;22.868;2023-02-13T05:03:17;103606.44;;;2.31;100.00
63808;BME280;49961;43.970;22.868;2023-02-13T05:04:17;103600.63;;;2.32;100.00
63808;BME280;49961;43.970;22.868;2023-02-13T05:05:19;103604.19;;;2.33;100.00
63808;BME280;49961;43.970;22.868;2023-02-13T05:06:19;103595.88;;;2.38;100.00
63808;BME280;49961;43.970;22.868;2023-02-13T05:07:20;103610.06;;;2.40;100.00
63808;BME280;49961;43.970;22.868;2023-02-13T05:08:20;103613.31;;;2.42;100.00
63808;BME280;49961;43.970;22.868;2023-02-13T05:09:21;103599.09;;;2.40;100.00
63808;BME280;49961;43.970;22.868;2023-02-13T05:10:21;103597.91;;;2.46;100.00
63808;BME280;49961;43.970;22.868;2023-02-13T05:11:22;103595.97;;;2.46;100.00
63808;BME280;49961;43.970;22.868;2023-02-13T05:12:22;103598.09;;;2.49;100.00
63808;BME280;49961;43.970;22.868;2023-02-13T05:13:22;103602.16;;;2.52;100.00
63808;BME280;49961;43.970;22.868;2023-02-13T05:14:23;103598.88;;;2.50;100.00
63808;BME280;49961;43.970;22.868;2023-02-13T05:15:24;103593.75;;;2.48;100.00
63808;BME280;49961;43.970;22.868;2023-02-13T05:16:24;103582.19;;;2.38;100.00
63808;BME280;49961;43.970;22.868;2023-02-13T05:17:24;103599.81;;;2.45;100.00
63808;BME280;49961;43.970;22.868;2023-02-13T05:18:25;103577.66;;;2.33;100.00
63808;BME280;49961;43.970;22.868;2023-02-13T05:19:25;103591.81;;;2.49;100.00
63808;BME280;49961;43.970;22.868;2023-02-13T05:20:26;103597.81;;;2.51;100.00
63808;BME280;49961;43.970;22.868;2023-02-13T05:21:26;103505.41;;;1.94;100.00
63808;BME280;49961;43.970;22.868;2023-02-13T05:22:47;103599.31;;;2.43;100.00
63808;BME280;49961;43.970;22.868;2023-02-13T05:24:07;103591.22;;;2.38;100.00
63808;BME280;49961;43.970;22.868;2023-02-13T05:25:07;103594.06;;;2.33;100.00
63808;BME280;49961;43.970;22.868;2023-02-13T05:26:08;103569.22;;;2.16;100.00
63808;BME280;49961;43.970;22.868;2023-02-13T05:27:08;103529.03;;;1.90;100.00
63808;BME280;49961;43.970;22.868;2023-02-13T05:28:08;103594.47;;;2.27;100.00
63808;BME280;49961;43.970;22.868;2023-02-13T05:29:29;103602.78;;;2.22;100.00
63808;BME280;49961;43.970;22.868;2023-02-13T05:30:29;103521.22;;;1.70;100.00
63808;BME280;49961;43.970;22.868;2023-02-13T05:31:30;103581.47;;;2.05;100.00
63808;BME280;49961;43.970;22.868;2023-02-13T05:32:30;103600.72;;;2.14;100.00
63808;BME280;49961;43.970;22.868;2023-02-13T05:33:30;103466.69;;;1.33;100.00
63808;BME280;49961;43.970;22.868;2023-02-13T05:34:31;103563.47;;;1.91;100.00
63808;BME280;49961;43.970;22.868;2023-02-13T05:35:31;103576.41;;;1.99;100.00
63808;BME280;49961;43.970;22.868;2023-02-13T05:36:32;103535.19;;;1.68;100.00
63808;BME280;49961;43.970;22.868;2023-02-13T05:37:32;103597.81;;;2.10;100.00
63808;BME280;49961;43.970;22.868;2023-02-13T05:38:33;103600.84;;;2.09;100.00
63808;BME280;49961;43.970;22.868;2023-02-13T05:39:34;103560.53;;;1.87;100.00
63808;BME280;49961;43.970;22.868;2023-02-13T05:40:34;103599.41;;;2.11;100.00
63808;BME280;49961;43.970;22.868;2023-02-13T05:41:35;103604.09;;;2.11;100.00
63808;BME280;49961;43.970;22.868;2023-02-13T05:42:35;103597.00;;;2.10;100.00
63808;BME280;49961;43.970;22.868;2023-02-13T05:43:36;103600.03;;;2.08;100.00
63808;BME280;49961;43.970;22.868;2023-02-13T05:44:36;103609.38;;;2.07;100.00
63808;BME280;49961;43.970;22.868;2023-02-13T05:45:37;103591.84;;;1.95;100.00
63808;BME280;49961;43.970;22.868;2023-02-13T05:46:38;103602.16;;;1.98;100.00
63808;BME280;49961;43.970;22.868;2023-02-13T05:47:39;103609.75;;;2.01;100.00
63808;BME280;49961;43.970;22.868;2023-02-13T05:48:39;103602.16;;;1.98;100.00
63808;BME280;49961;43.970;22.868;2023-02-13T05:49:40;103613.19;;;2.06;100.00
63808;BME280;49961;43.970;22.868;2023-02-13T05:50:40;103612.09;;;2.07;100.00
63808;BME280;49961;43.970;22.868;2023-02-13T05:51:41;103600.25;;;2.12;100.00
63808;BME280;49961;43.970;22.868;2023-02-13T05:52:42;103605.09;;;2.15;100.00
63808;BME280;49961;43.970;22.868;2023-02-13T05:53:42;103609.47;;;2.16;100.00
63808;BME280;49961;43.970;22.868;2023-02-13T05:54:43;103604.28;;;2.14;100.00
63808;BME280;49961;43.970;22.868;2023-02-13T05:55:43;103590.81;;;2.04;100.00
63808;BME280;49961;43.970;22.868;2023-02-13T05:56:44;103613.00;;;2.16;100.00
63808;BME280;49961;43.970;22.868;2023-02-13T05:57:45;103600.25;;;2.12;100.00
63808;BME280;49961;43.970;22.868;2023-02-13T05:58:45;103595.47;;;2.17;100.00
63808;BME280;49961;43.970;22.868;2023-02-13T05:59:46;103606.53;;;2.26;100.00
63808;BME280;49961;43.970;22.868;2023-02-13T06:00:46;103442.00;;;1.24;100.00
63808;BME280;49961;43.970;22.868;2023-02-13T06:01:47;103609.28;;;2.26;100.00
63808;BME280;49961;43.970;22.868;2023-02-13T06:02:47;103529.50;;;1.78;100.00
63808;BME280;49961;43.970;22.868;2023-02-13T06:03:48;103616.44;;;2.35;100.00
63808;BME280;49961;43.970;22.868;2023-02-13T06:04:49;103618.25;;;2.40;100.00
63808;BME280;49961;43.970;22.868;2023-02-13T06:05:50;103619.09;;;2.40;100.00
63808;BME280;49961;43.970;22.868;2023-02-13T06:06:51;103621.81;;;2.40;100.00
63808;BME280;49961;43.970;22.868;2023-02-13T06:07:51;103613.31;;;2.42;100.00
63808;BME280;49961;43.970;22.868;2023-02-13T06:08:51;103626.06;;;2.46;100.00
63808;BME280;49961;43.970;22.868;2023-02-13T06:09:52;103627.38;;;2.49;100.00